createdAt,value
2018-10-21T00:02:09.783Z,99.90
2018-10-21T00:04:39.418Z,99.90
2018-10-21T00:07:07.960Z,99.90
2018-10-21T00:09:36.486Z,99.90
2018-10-21T00:12:05.058Z,99.90
2018-10-21T00:14:33.563Z,99.90
2018-10-21T00:17:02.090Z,99.90
2018-10-21T00:19:30.607Z,99.90
2018-10-21T00:21:59.154Z,99.90
2018-10-21T00:24:27.663Z,99.90
2018-10-21T00:26:56.262Z,99.90
2018-10-21T00:29:24.767Z,99.90
2018-10-21T00:31:53.275Z,99.90
2018-10-21T00:34:21.788Z,99.90
2018-10-21T00:36:50.316Z,99.90
2018-10-21T00:39:18.819Z,99.90
2018-10-21T00:41:47.318Z,99.90
2018-10-21T00:44:15.814Z,99.90
2018-10-21T00:46:44.335Z,99.90
2018-10-21T00:49:12.859Z,99.90
2018-10-21T00:51:41.374Z,99.90
2018-10-21T00:54:13.820Z,99.90
2018-10-21T00:56:42.975Z,99.90
2018-10-21T00:59:11.779Z,99.90
2018-10-21T01:01:40.348Z,99.90
2018-10-21T01:04:09.265Z,99.90
2018-10-21T01:06:37.816Z,99.90
2018-10-21T01:09:09.362Z,99.90
2018-10-21T01:11:38.470Z,99.90
2018-10-21T01:14:07.004Z,99.90
2018-10-21T01:16:35.568Z,99.90
2018-10-21T01:19:04.553Z,99.90
2018-10-21T01:21:33.089Z,99.90
2018-10-21T01:24:01.659Z,99.90
2018-10-21T01:26:30.187Z,99.90
2018-10-21T01:28:58.792Z,99.90
2018-10-21T01:31:27.324Z,99.90
2018-10-21T01:33:55.895Z,99.90
2018-10-21T01:36:24.682Z,99.90
2018-10-21T01:38:53.132Z,99.90
2018-10-21T01:41:21.666Z,99.90
2018-10-21T01:43:50.227Z,99.90
2018-10-21T01:46:18.791Z,99.90
2018-10-21T01:48:47.386Z,99.90
2018-10-21T01:51:15.996Z,99.90
2018-10-21T01:53:44.535Z,99.90
2018-10-21T01:56:13.087Z,99.90
2018-10-21T01:58:41.669Z,99.90
2018-10-21T02:01:10.215Z,99.90
2018-10-21T02:03:38.775Z,99.90
2018-10-21T02:06:07.305Z,99.90
2018-10-21T02:08:35.887Z,99.90
2018-10-21T02:11:04.468Z,99.90
2018-10-21T02:13:33.295Z,99.90
2018-10-21T02:16:01.849Z,99.90
2018-10-21T02:18:30.415Z,99.90
2018-10-21T02:20:59.004Z,99.90
2018-10-21T02:23:27.552Z,99.90
2018-10-21T02:25:56.117Z,99.90
2018-10-21T02:28:24.659Z,99.90
2018-10-21T02:30:53.211Z,99.90
2018-10-21T02:33:22.630Z,99.90
2018-10-21T02:35:51.133Z,99.90
2018-10-21T02:38:19.708Z,99.90
2018-10-21T02:41:31.851Z,99.90
2018-10-21T02:44:00.651Z,99.90
2018-10-21T02:46:29.531Z,99.90
2018-10-21T02:48:58.812Z,99.90
2018-10-21T02:51:27.370Z,99.90
2018-10-21T02:53:55.882Z,99.90
2018-10-21T02:56:24.478Z,99.90
2018-10-21T02:58:53.087Z,99.90
2018-10-21T03:01:21.651Z,99.90
2018-10-21T03:03:50.188Z,99.90
2018-10-21T03:06:18.735Z,99.90
2018-10-21T03:08:47.336Z,99.90
2018-10-21T03:11:15.883Z,99.90
2018-10-21T03:13:44.399Z,99.90
2018-10-21T03:16:12.982Z,99.90
2018-10-21T03:18:41.521Z,99.90
2018-10-21T03:21:10.150Z,99.90
2018-10-21T03:23:38.618Z,99.90
2018-10-21T03:26:07.188Z,99.90
2018-10-21T03:28:35.735Z,99.90
2018-10-21T03:31:04.337Z,99.90
2018-10-21T03:33:33.060Z,99.90
2018-10-21T03:36:01.704Z,99.90
2018-10-21T03:38:30.211Z,99.90
2018-10-21T03:40:58.823Z,99.90
2018-10-21T03:43:27.370Z,99.90
2018-10-21T03:45:55.976Z,99.90
2018-10-21T03:48:24.547Z,99.90
2018-10-21T03:50:53.119Z,99.90
2018-10-21T03:53:21.637Z,99.90
2018-10-21T03:55:50.210Z,99.90
2018-10-21T03:58:18.799Z,99.90
2018-10-21T04:00:47.355Z,99.90
2018-10-21T04:03:15.928Z,99.90
2018-10-21T04:05:44.516Z,99.90
2018-10-21T04:08:13.048Z,99.90
2018-10-21T04:10:41.595Z,99.90
2018-10-21T04:13:10.125Z,99.90
2018-10-21T04:15:38.695Z,99.90
2018-10-21T04:18:07.234Z,99.90
2018-10-21T04:20:35.800Z,99.90
2018-10-21T04:23:04.913Z,99.90
2018-10-21T04:25:34.646Z,99.90
2018-10-21T04:28:03.844Z,99.90
2018-10-21T04:30:34.494Z,99.90
2018-10-21T04:33:08.330Z,99.90
2018-10-21T04:35:36.950Z,99.90
2018-10-21T04:38:15.519Z,99.90
2018-10-21T04:40:44.119Z,99.90
2018-10-21T04:43:12.631Z,99.90
2018-10-21T04:45:41.196Z,99.90
2018-10-21T04:48:09.697Z,99.90
2018-10-21T04:50:38.275Z,99.90
2018-10-21T04:53:06.805Z,99.90
2018-10-21T04:55:35.399Z,99.90
2018-10-21T04:58:04.024Z,99.90
2018-10-21T05:00:32.558Z,99.90
2018-10-21T05:03:01.124Z,99.90
2018-10-21T05:05:29.695Z,99.90
2018-10-21T05:07:58.236Z,99.90
2018-10-21T05:10:28.681Z,99.90
2018-10-21T05:12:57.577Z,99.90
2018-10-21T05:15:27.284Z,99.90
2018-10-21T05:17:56.187Z,99.90
2018-10-21T05:20:24.799Z,99.90
2018-10-21T05:22:53.328Z,99.90
2018-10-21T05:25:21.900Z,99.90
2018-10-21T05:27:50.447Z,99.90
2018-10-21T05:30:19.027Z,99.90
2018-10-21T05:32:47.559Z,99.90
2018-10-21T05:35:17.092Z,99.90
2018-10-21T05:37:45.672Z,99.90
2018-10-21T05:40:22.110Z,99.90
2018-10-21T05:42:50.867Z,99.90
2018-10-21T05:45:19.450Z,99.90
2018-10-21T05:47:48.007Z,99.90
2018-10-21T05:50:17.099Z,99.90
2018-10-21T05:52:45.739Z,99.90
2018-10-21T05:55:14.867Z,99.90
2018-10-21T05:57:43.440Z,99.90
2018-10-21T06:00:16.051Z,99.90
2018-10-21T06:02:44.694Z,99.90
2018-10-21T06:05:24.566Z,99.90
2018-10-21T06:07:53.140Z,99.90
2018-10-21T06:10:21.696Z,99.90
2018-10-21T06:12:50.283Z,99.90
2018-10-21T06:15:18.851Z,99.90
2018-10-21T06:17:47.406Z,99.90
2018-10-21T06:20:23.772Z,99.90
2018-10-21T06:22:53.141Z,99.90
2018-10-21T06:25:21.660Z,99.90
2018-10-21T06:27:50.309Z,99.90
2018-10-21T06:30:19.715Z,99.90
2018-10-21T06:32:48.291Z,99.90
2018-10-21T06:35:16.836Z,99.90
2018-10-21T06:37:45.376Z,99.90
2018-10-21T06:40:13.908Z,99.90
2018-10-21T06:42:42.465Z,99.90
2018-10-21T06:45:11.904Z,99.90
2018-10-21T06:47:40.663Z,99.90
2018-10-21T06:50:16.111Z,99.90
2018-10-21T06:52:44.741Z,99.90
2018-10-21T06:55:13.446Z,99.90
2018-10-21T06:57:42.668Z,99.90
2018-10-21T07:00:11.179Z,99.90
2018-10-21T07:02:39.812Z,99.90
2018-10-21T07:05:20.412Z,99.90
2018-10-21T07:07:49.108Z,99.90
2018-10-21T07:10:18.163Z,99.90
2018-10-21T07:12:46.727Z,99.90
2018-10-21T07:15:15.274Z,99.90
2018-10-21T07:17:44.246Z,99.90
2018-10-21T07:20:12.815Z,99.90
2018-10-21T07:22:42.451Z,99.90
2018-10-21T07:25:11.221Z,99.90
2018-10-21T07:27:40.224Z,99.90
2018-10-21T07:30:10.420Z,99.90
2018-10-21T07:32:39.688Z,99.90
2018-10-21T07:35:09.733Z,99.90
2018-10-21T07:37:38.256Z,99.90
2018-10-21T07:40:07.578Z,99.90
2018-10-21T07:42:36.104Z,99.90
2018-10-21T07:45:04.751Z,99.90
2018-10-21T07:47:33.280Z,99.90
2018-10-21T07:50:02.255Z,99.90
2018-10-21T07:52:30.801Z,99.90
2018-10-21T07:54:59.316Z,99.90
2018-10-21T07:57:27.868Z,99.90
2018-10-21T07:59:56.395Z,99.90
2018-10-21T08:02:24.955Z,99.90
2018-10-21T08:04:53.477Z,99.90
2018-10-21T08:07:33.223Z,99.90
2018-10-21T08:10:01.827Z,99.90
2018-10-21T08:12:30.283Z,99.90
2018-10-21T08:14:58.812Z,99.90
2018-10-21T08:17:27.352Z,99.90
2018-10-21T08:19:55.899Z,99.90
2018-10-21T08:22:24.504Z,99.90
2018-10-21T08:24:53.019Z,99.90
2018-10-21T08:27:21.620Z,99.90
2018-10-21T08:29:50.144Z,99.90
2018-10-21T08:32:18.666Z,99.90
2018-10-21T08:34:47.192Z,99.90
2018-10-21T08:37:15.701Z,99.90
2018-10-21T08:39:44.236Z,99.90
2018-10-21T08:42:12.845Z,99.90
2018-10-21T08:44:41.417Z,99.90
2018-10-21T08:47:09.988Z,99.90
2018-10-21T08:49:38.528Z,99.90
2018-10-21T08:52:07.119Z,99.90
2018-10-21T08:54:35.668Z,99.90
2018-10-21T08:57:04.223Z,99.90
2018-10-21T08:59:32.783Z,99.90
2018-10-21T09:02:01.355Z,99.90
2018-10-21T09:04:29.935Z,99.90
2018-10-21T09:06:58.472Z,99.90
2018-10-21T09:09:27.009Z,99.90
2018-10-21T09:11:55.502Z,99.90
2018-10-21T09:14:24.050Z,99.90
2018-10-21T09:16:52.615Z,99.90
2018-10-21T09:19:21.176Z,99.90
2018-10-21T09:21:49.767Z,99.90
2018-10-21T09:24:18.343Z,99.90
2018-10-21T09:26:46.856Z,99.90
2018-10-21T09:29:15.663Z,99.90
2018-10-21T09:31:44.212Z,99.90
2018-10-21T09:34:12.811Z,99.90
2018-10-21T09:36:41.287Z,99.90
2018-10-21T09:39:12.394Z,99.90
2018-10-21T09:41:41.242Z,99.90
2018-10-21T09:44:10.644Z,99.90
2018-10-21T09:46:39.643Z,99.90
2018-10-21T09:49:08.961Z,99.90
2018-10-21T09:51:38.149Z,99.90
2018-10-21T09:54:06.943Z,99.90
2018-10-21T09:56:35.812Z,99.90
2018-10-21T09:59:04.559Z,99.90
2018-10-21T10:01:38.381Z,99.90
2018-10-21T10:04:07.010Z,99.90
2018-10-21T10:06:35.512Z,99.90
2018-10-21T10:09:05.930Z,99.90
2018-10-21T10:11:34.450Z,99.90
2018-10-21T10:14:02.999Z,99.90
2018-10-21T10:16:31.503Z,99.90
2018-10-21T10:19:00.086Z,99.90
2018-10-21T10:21:28.567Z,99.90
2018-10-21T10:23:57.086Z,99.90
2018-10-21T10:26:25.672Z,99.90
2018-10-21T10:28:54.216Z,99.90
2018-10-21T10:31:22.802Z,99.90
2018-10-21T10:33:51.311Z,99.90
2018-10-21T10:36:19.895Z,99.90
2018-10-21T10:38:48.358Z,99.90
2018-10-21T10:41:16.903Z,99.90
2018-10-21T10:43:45.484Z,99.90
2018-10-21T10:46:14.116Z,99.90
2018-10-21T10:48:42.613Z,99.90
2018-10-21T10:51:11.135Z,99.90
2018-10-21T10:53:39.652Z,99.90
2018-10-21T10:56:08.203Z,99.90
2018-10-21T10:58:36.743Z,99.90
2018-10-21T11:01:05.456Z,99.90
2018-10-21T11:03:33.991Z,99.90
2018-10-21T11:06:02.551Z,99.90
2018-10-21T11:08:31.141Z,99.90
2018-10-21T11:10:59.723Z,99.90
2018-10-21T11:13:28.256Z,99.90
2018-10-21T11:15:56.901Z,99.90
2018-10-21T11:18:25.628Z,99.90
2018-10-21T11:20:54.207Z,99.90
2018-10-21T11:23:22.755Z,99.90
2018-10-21T11:25:51.333Z,99.90
2018-10-21T11:28:19.965Z,99.90
2018-10-21T11:30:48.525Z,99.90
2018-10-21T11:33:17.092Z,99.90
2018-10-21T11:35:45.651Z,99.90
2018-10-21T11:38:14.212Z,99.90
2018-10-21T11:40:42.770Z,99.90
2018-10-21T11:43:11.407Z,99.90
2018-10-21T11:45:39.928Z,99.90
2018-10-21T11:48:08.460Z,99.90
2018-10-21T11:50:37.003Z,99.90
2018-10-21T11:53:05.929Z,99.90
2018-10-21T11:55:38.207Z,99.90
2018-10-21T11:58:09.393Z,99.90
2018-10-21T12:00:37.976Z,99.90
2018-10-21T12:03:06.799Z,99.90
2018-10-21T12:05:35.363Z,99.90
2018-10-21T12:08:03.984Z,99.90
2018-10-21T12:10:32.759Z,99.90
2018-10-21T12:13:01.380Z,99.90
2018-10-21T12:15:29.881Z,99.90
2018-10-21T12:17:58.407Z,99.90
2018-10-21T12:20:26.958Z,99.90
2018-10-21T12:22:55.595Z,99.90
2018-10-21T12:25:24.222Z,99.90
2018-10-21T12:27:52.746Z,98.60
2018-10-21T12:30:21.327Z,97.50
2018-10-21T12:32:49.864Z,97.60
2018-10-21T12:35:18.513Z,97.50
2018-10-21T12:37:47.026Z,98.70
2018-10-21T12:40:15.633Z,98.20
2018-10-21T12:42:44.121Z,98.40
2018-10-21T12:45:12.973Z,97.90
2018-10-21T12:47:41.501Z,96.90
2018-10-21T12:50:10.084Z,95.80
2018-10-21T12:52:38.656Z,96.10
2018-10-21T12:55:08.264Z,96.10
2018-10-21T12:57:36.803Z,96.20
2018-10-21T13:00:05.791Z,96.50
2018-10-21T13:02:34.381Z,96.40
2018-10-21T13:05:02.984Z,96.10
2018-10-21T13:07:31.543Z,95.70
2018-10-21T13:10:00.134Z,96.30
2018-10-21T13:12:28.695Z,97.30
2018-10-21T13:14:57.247Z,96.40
2018-10-21T13:17:25.824Z,96.50
2018-10-21T13:19:54.494Z,96.70
2018-10-21T13:22:23.364Z,96.10
2018-10-21T13:24:52.016Z,96.50
2018-10-21T13:27:20.604Z,96.70
2018-10-21T13:29:49.131Z,96.80
2018-10-21T13:32:17.736Z,96.60
2018-10-21T13:34:46.500Z,96.30
2018-10-21T13:37:15.134Z,95.30
2018-10-21T13:39:43.646Z,95.20
2018-10-21T13:42:12.207Z,95.10
2018-10-21T13:44:40.768Z,94.70
2018-10-21T13:47:09.319Z,94.80
2018-10-21T13:49:37.874Z,94.70
2018-10-21T13:52:06.687Z,95.20
2018-10-21T13:54:35.045Z,94.70
2018-10-21T13:57:03.659Z,94.40
2018-10-21T13:59:32.260Z,95.00
2018-10-21T14:02:00.812Z,95.40
2018-10-21T14:04:29.392Z,93.70
2018-10-21T14:06:58.024Z,93.70
2018-10-21T14:09:26.496Z,93.90
2018-10-21T14:11:55.039Z,93.70
2018-10-21T14:14:23.595Z,94.30
2018-10-21T14:16:52.152Z,94.80
2018-10-21T14:19:20.705Z,93.70
2018-10-21T14:21:49.253Z,93.30
2018-10-21T14:24:17.912Z,93.50
2018-10-21T14:26:46.393Z,93.80
2018-10-21T14:29:14.920Z,93.70
2018-10-21T14:31:43.468Z,93.20
2018-10-21T14:34:11.990Z,93.40
2018-10-21T14:36:40.588Z,93.50
2018-10-21T14:39:10.917Z,94.10
2018-10-21T14:41:39.695Z,93.90
2018-10-21T14:44:08.260Z,94.00
2018-10-21T14:46:43.206Z,93.80
2018-10-21T14:49:11.791Z,94.50
2018-10-21T14:51:40.352Z,94.50
2018-10-21T14:54:09.103Z,94.10
2018-10-21T14:56:37.583Z,94.40
2018-10-21T14:59:06.220Z,94.20
2018-10-21T15:01:34.791Z,94.20
2018-10-21T15:04:03.555Z,94.60
2018-10-21T15:06:32.060Z,94.50
2018-10-21T15:09:01.255Z,94.20
2018-10-21T15:11:30.342Z,94.50
2018-10-21T15:13:58.941Z,94.50
2018-10-21T15:16:27.485Z,94.50
2018-10-21T15:18:56.048Z,94.60
2018-10-21T15:21:24.570Z,94.60
2018-10-21T15:23:53.111Z,94.40
2018-10-21T15:26:27.991Z,94.40
2018-10-21T15:29:04.132Z,94.40
2018-10-21T15:31:38.507Z,94.20
2018-10-21T15:34:13.735Z,94.30
2018-10-21T15:36:48.976Z,94.40
2018-10-21T15:39:22.926Z,94.60
2018-10-21T15:41:56.680Z,94.50
2018-10-21T15:44:31.843Z,94.40
2018-10-21T15:47:06.078Z,94.90
2018-10-21T15:49:40.749Z,95.70
2018-10-21T15:52:15.562Z,95.40
2018-10-21T15:54:49.961Z,96.30
2018-10-21T15:57:24.893Z,95.80
2018-10-21T15:59:59.076Z,95.10
2018-10-21T16:02:33.001Z,95.50
2018-10-21T16:05:08.438Z,96.30
2018-10-21T16:07:42.732Z,96.30
2018-10-21T16:10:18.657Z,96.80
2018-10-21T16:12:53.324Z,97.10
2018-10-21T16:15:28.307Z,97.20
2018-10-21T16:18:01.005Z,97.50
2018-10-21T16:20:34.717Z,98.00
2018-10-21T16:23:09.299Z,98.10
2018-10-21T16:25:44.256Z,98.70
2018-10-21T16:28:18.426Z,99.20
2018-10-21T16:32:20.858Z,99.70
2018-10-21T16:34:55.164Z,99.90
2018-10-21T16:37:29.430Z,99.90
2018-10-21T16:40:04.147Z,99.90
2018-10-21T16:42:39.022Z,99.90
2018-10-21T16:45:31.632Z,99.90
2018-10-21T16:48:05.896Z,99.90
2018-10-21T16:50:37.738Z,99.90
2018-10-21T16:53:03.092Z,99.90
2018-10-21T16:55:31.586Z,99.90
2018-10-21T16:58:00.127Z,99.90
2018-10-21T17:00:28.853Z,99.90
2018-10-21T17:02:57.269Z,99.90
2018-10-21T17:05:25.859Z,99.90
2018-10-21T17:07:54.704Z,99.90
2018-10-21T17:10:23.743Z,99.90
2018-10-21T17:12:51.849Z,99.90
2018-10-21T17:15:20.432Z,99.90
2018-10-21T17:17:48.968Z,99.90
2018-10-21T17:20:17.727Z,99.90
2018-10-21T17:22:46.409Z,99.90
2018-10-21T17:25:15.609Z,99.90
2018-10-21T17:27:44.100Z,99.90
2018-10-21T17:30:15.133Z,99.90
2018-10-21T17:32:44.219Z,99.90
2018-10-21T17:35:12.775Z,99.90
2018-10-21T17:37:41.486Z,99.90
2018-10-21T17:40:11.412Z,99.90
2018-10-21T17:42:40.311Z,99.90
2018-10-21T17:45:12.143Z,99.90
2018-10-21T17:47:40.757Z,99.90
2018-10-21T17:50:10.924Z,99.90
2018-10-21T17:52:39.580Z,99.90
2018-10-21T17:55:12.239Z,99.90
2018-10-21T17:57:40.736Z,99.90
2018-10-21T18:00:10.511Z,99.90
2018-10-21T18:02:45.441Z,99.90
2018-10-21T18:05:14.761Z,99.90
2018-10-21T18:07:43.573Z,99.90
2018-10-21T18:10:12.609Z,99.90
2018-10-21T18:12:41.075Z,99.90
2018-10-21T18:15:15.539Z,99.90
2018-10-21T18:17:49.839Z,99.90
2018-10-21T18:20:25.855Z,99.90
2018-10-21T18:22:59.351Z,99.90
2018-10-21T18:25:34.850Z,99.90
2018-10-21T18:28:10.353Z,99.90
2018-10-21T18:30:44.122Z,99.90
2018-10-21T18:33:17.619Z,99.90
2018-10-21T18:35:50.913Z,99.90
2018-10-21T18:38:24.743Z,99.90
2018-10-21T18:40:58.755Z,99.90
2018-10-21T18:43:32.601Z,99.90
2018-10-21T18:46:06.846Z,99.90
2018-10-21T18:48:40.759Z,99.90
2018-10-21T18:51:15.077Z,99.90
2018-10-21T18:53:47.910Z,99.90
2018-10-21T18:56:21.095Z,99.90
2018-10-21T18:58:54.693Z,99.90
2018-10-21T19:01:28.656Z,99.90
2018-10-21T19:04:02.143Z,99.90
2018-10-21T19:06:36.375Z,99.90
2018-10-21T19:09:14.600Z,99.90
2018-10-21T19:11:48.118Z,99.90
2018-10-21T19:14:22.948Z,99.90
2018-10-21T19:16:56.597Z,99.90
2018-10-21T19:19:30.920Z,99.90
2018-10-21T19:22:03.563Z,99.90
2018-10-21T19:24:37.283Z,99.90
2018-10-21T19:27:10.827Z,99.90
2018-10-21T19:29:43.913Z,99.90
2018-10-21T19:32:17.981Z,99.90
2018-10-21T19:34:51.275Z,99.90
2018-10-21T19:37:25.057Z,99.90
2018-10-21T19:39:58.617Z,99.90
2018-10-21T19:42:33.114Z,99.90
2018-10-21T19:45:07.101Z,99.90
2018-10-21T19:47:41.831Z,99.90
2018-10-21T19:50:18.956Z,99.90
2018-10-21T19:52:51.811Z,99.90
2018-10-21T19:55:24.808Z,99.90
2018-10-21T19:57:53.404Z,99.90
2018-10-21T20:00:21.984Z,99.90
2018-10-21T20:02:50.570Z,99.90
2018-10-21T20:05:19.123Z,99.90
2018-10-21T20:07:47.724Z,99.90
2018-10-21T20:10:16.405Z,99.90
2018-10-21T20:12:44.888Z,99.90
2018-10-21T20:15:14.015Z,99.90
2018-10-21T20:17:42.587Z,99.90
2018-10-21T20:20:11.931Z,99.90
2018-10-21T20:22:40.524Z,99.90
2018-10-21T20:25:10.090Z,99.90
2018-10-21T20:27:38.620Z,99.90
2018-10-21T20:30:08.687Z,99.90
2018-10-21T20:32:37.307Z,99.90
2018-10-21T20:35:07.112Z,99.90
2018-10-21T20:37:35.763Z,99.90
2018-10-21T20:40:04.415Z,99.90
2018-10-21T20:42:32.991Z,99.90
2018-10-21T20:45:01.535Z,99.90
2018-10-21T20:47:30.127Z,99.90
2018-10-21T20:49:58.651Z,99.90
2018-10-21T20:52:27.223Z,99.90
2018-10-21T20:54:55.748Z,99.90
2018-10-21T20:57:24.319Z,99.90
2018-10-21T20:59:52.901Z,99.90
2018-10-21T21:02:21.484Z,99.90
2018-10-21T21:04:50.034Z,99.90
2018-10-21T21:07:18.916Z,99.90
2018-10-21T21:09:47.515Z,99.90
2018-10-21T21:12:16.140Z,99.90
2018-10-21T21:14:52.726Z,99.90
2018-10-21T21:17:21.303Z,99.90
2018-10-21T21:19:49.876Z,99.90
2018-10-21T21:22:18.541Z,99.90
2018-10-21T21:24:47.023Z,99.90
2018-10-21T21:27:15.620Z,99.90
2018-10-21T21:29:44.194Z,99.90
2018-10-21T21:32:12.776Z,99.90
2018-10-21T21:34:41.347Z,99.90
2018-10-21T21:37:09.935Z,99.90
2018-10-21T21:39:38.504Z,99.90
2018-10-21T21:42:07.121Z,99.90
2018-10-21T21:44:35.635Z,99.90
2018-10-21T21:47:04.208Z,99.90
2018-10-21T21:49:32.763Z,99.90
2018-10-21T21:52:01.300Z,99.90
2018-10-21T21:54:29.839Z,99.90
2018-10-21T21:56:58.379Z,99.90
2018-10-21T21:59:26.954Z,99.90
2018-10-21T22:01:55.510Z,99.90
2018-10-21T22:04:24.062Z,99.90
2018-10-21T22:06:52.614Z,99.90
2018-10-21T22:09:21.142Z,99.90
2018-10-21T22:11:49.687Z,99.90
2018-10-21T22:14:18.217Z,99.90
2018-10-21T22:16:46.783Z,99.90
2018-10-21T22:19:15.374Z,99.90
2018-10-21T22:21:43.907Z,99.90
2018-10-21T22:24:12.553Z,99.90
2018-10-21T22:26:41.052Z,99.90
2018-10-21T22:29:09.644Z,99.90
2018-10-21T22:31:38.223Z,99.90
2018-10-21T22:34:06.889Z,99.90
2018-10-21T22:36:35.385Z,99.90
2018-10-21T22:39:05.032Z,99.90
2018-10-21T22:41:33.551Z,99.90
2018-10-21T22:44:02.127Z,99.90
2018-10-21T22:46:30.753Z,99.90
2018-10-21T22:48:59.353Z,99.90
2018-10-21T22:51:27.890Z,99.90
2018-10-21T22:53:56.499Z,99.90
2018-10-21T22:56:25.031Z,99.90
2018-10-21T22:58:53.810Z,99.90
2018-10-21T23:01:22.369Z,99.90
2018-10-21T23:03:50.932Z,99.90
2018-10-21T23:06:19.503Z,99.90
2018-10-21T23:08:47.995Z,99.90
2018-10-21T23:11:16.494Z,99.90
2018-10-21T23:13:45.049Z,99.90
2018-10-21T23:16:13.655Z,99.90
2018-10-21T23:18:42.280Z,99.90
2018-10-21T23:21:10.791Z,99.90
2018-10-21T23:23:39.300Z,99.90
2018-10-21T23:26:07.837Z,99.90
2018-10-21T23:28:36.388Z,99.90
2018-10-21T23:31:05.177Z,99.90
2018-10-21T23:33:33.708Z,99.90
2018-10-21T23:36:02.254Z,99.90
2018-10-21T23:38:30.779Z,99.90
2018-10-21T23:40:59.279Z,99.90
2018-10-21T23:43:27.783Z,99.90
2018-10-21T23:45:56.369Z,99.90
2018-10-21T23:48:24.875Z,99.90
2018-10-21T23:50:53.421Z,99.90
2018-10-21T23:53:21.968Z,99.90
2018-10-21T23:55:50.503Z,99.90
2018-10-21T23:58:19.548Z,99.90
